sensor_id;sensor_type;location;lat;lon;timestamp;P1;durP1;ratioP1;P2;durP2;ratioP2
42098;SDS011;27758;55.900;8.516;2023-09-19T00:01:12;14.05;;;3.05;;
42098;SDS011;27758;55.900;8.516;2023-09-19T00:03:39;17.10;;;2.55;;
42098;SDS011;27758;55.900;8.516;2023-09-19T00:06:05;17.58;;;2.92;;
42098;SDS011;27758;55.900;8.516;2023-09-19T00:08:33;12.55;;;2.72;;
42098;SDS011;27758;55.900;8.516;2023-09-19T00:10:59;17.70;;;3.53;;
42098;SDS011;27758;55.900;8.516;2023-09-19T00:13:31;16.75;;;2.90;;
42098;SDS011;27758;55.900;8.516;2023-09-19T00:15:57;17.92;;;2.53;;
42098;SDS011;27758;55.900;8.516;2023-09-19T00:18:24;18.20;;;2.80;;
42098;SDS011;27758;55.900;8.516;2023-09-19T00:21:00;15.98;;;2.65;;
42098;SDS011;27758;55.900;8.516;2023-09-19T00:23:26;9.57;;;2.33;;
42098;SDS011;27758;55.900;8.516;2023-09-19T00:25:53;14.27;;;2.38;;
42098;SDS011;27758;55.900;8.516;2023-09-19T00:28:23;11.52;;;2.40;;
42098;SDS011;27758;55.900;8.516;2023-09-19T00:30:48;10.18;;;2.17;;
42098;SDS011;27758;55.900;8.516;2023-09-19T00:33:19;9.10;;;1.63;;
42098;SDS011;27758;55.900;8.516;2023-09-19T00:38:15;13.60;;;2.20;;
42098;SDS011;27758;55.900;8.516;2023-09-19T00:40:46;10.43;;;2.05;;
42098;SDS011;27758;55.900;8.516;2023-09-19T00:43:12;11.98;;;2.47;;
42098;SDS011;27758;55.900;8.516;2023-09-19T00:45:39;15.18;;;2.15;;
42098;SDS011;27758;55.900;8.516;2023-09-19T00:48:09;16.40;;;2.78;;
42098;SDS011;27758;55.900;8.516;2023-09-19T00:50:35;14.65;;;2.55;;
42098;SDS011;27758;55.900;8.516;2023-09-19T00:53:02;16.15;;;2.47;;
42098;SDS011;27758;55.900;8.516;2023-09-19T00:55:33;12.65;;;1.95;;
42098;SDS011;27758;55.900;8.516;2023-09-19T00:57:59;11.32;;;2.53;;
42098;SDS011;27758;55.900;8.516;2023-09-19T01:00:26;13.38;;;2.35;;
42098;SDS011;27758;55.900;8.516;2023-09-19T01:02:52;13.10;;;2.42;;
42098;SDS011;27758;55.900;8.516;2023-09-19T01:05:19;12.25;;;2.88;;
42098;SDS011;27758;55.900;8.516;2023-09-19T01:07:44;19.05;;;3.28;;
42098;SDS011;27758;55.900;8.516;2023-09-19T01:10:14;10.93;;;2.67;;
42098;SDS011;27758;55.900;8.516;2023-09-19T01:13:01;11.40;;;2.20;;
42098;SDS011;27758;55.900;8.516;2023-09-19T01:18:16;17.98;;;3.85;;
42098;SDS011;27758;55.900;8.516;2023-09-19T01:21:03;10.63;;;2.75;;
42098;SDS011;27758;55.900;8.516;2023-09-19T01:29:38;16.17;;;2.53;;
42098;SDS011;27758;55.900;8.516;2023-09-19T01:32:09;14.57;;;3.30;;
42098;SDS011;27758;55.900;8.516;2023-09-19T01:37:14;15.55;;;3.40;;
42098;SDS011;27758;55.900;8.516;2023-09-19T01:39:45;16.13;;;3.03;;
42098;SDS011;27758;55.900;8.516;2023-09-19T01:45:33;11.57;;;3.40;;
42098;SDS011;27758;55.900;8.516;2023-09-19T01:48:28;14.23;;;3.42;;
42098;SDS011;27758;55.900;8.516;2023-09-19T01:51:13;16.55;;;3.85;;
42098;SDS011;27758;55.900;8.516;2023-09-19T01:53:53;15.02;;;3.85;;
42098;SDS011;27758;55.900;8.516;2023-09-19T01:56:32;20.33;;;4.15;;
42098;SDS011;27758;55.900;8.516;2023-09-19T01:59:24;11.75;;;3.17;;
42098;SDS011;27758;55.900;8.516;2023-09-19T02:01:53;11.75;;;2.72;;
42098;SDS011;27758;55.900;8.516;2023-09-19T02:04:21;18.27;;;3.35;;
42098;SDS011;27758;55.900;8.516;2023-09-19T02:06:47;7.88;;;2.70;;
42098;SDS011;27758;55.900;8.516;2023-09-19T02:09:13;6.85;;;2.30;;
42098;SDS011;27758;55.900;8.516;2023-09-19T02:11:39;10.93;;;2.42;;
42098;SDS011;27758;55.900;8.516;2023-09-19T02:14:06;8.40;;;2.53;;
42098;SDS011;27758;55.900;8.516;2023-09-19T02:16:34;10.75;;;2.38;;
42098;SDS011;27758;55.900;8.516;2023-09-19T02:19:00;9.68;;;2.10;;
42098;SDS011;27758;55.900;8.516;2023-09-19T02:21:26;8.32;;;1.83;;
42098;SDS011;27758;55.900;8.516;2023-09-19T02:23:54;12.73;;;1.90;;
42098;SDS011;27758;55.900;8.516;2023-09-19T02:26:20;9.07;;;1.92;;
42098;SDS011;27758;55.900;8.516;2023-09-19T02:28:50;12.57;;;2.00;;
42098;SDS011;27758;55.900;8.516;2023-09-19T02:31:16;9.02;;;2.20;;
42098;SDS011;27758;55.900;8.516;2023-09-19T02:33:41;13.45;;;2.67;;
42098;SDS011;27758;55.900;8.516;2023-09-19T02:36:08;8.65;;;2.25;;
42098;SDS011;27758;55.900;8.516;2023-09-19T02:38:34;9.32;;;2.50;;
42098;SDS011;27758;55.900;8.516;2023-09-19T02:41:00;10.63;;;2.70;;
42098;SDS011;27758;55.900;8.516;2023-09-19T02:43:26;8.50;;;1.75;;
42098;SDS011;27758;55.900;8.516;2023-09-19T02:45:52;12.15;;;2.58;;
42098;SDS011;27758;55.900;8.516;2023-09-19T02:48:18;8.90;;;1.67;;
42098;SDS011;27758;55.900;8.516;2023-09-19T02:50:44;8.23;;;2.38;;
42098;SDS011;27758;55.900;8.516;2023-09-19T02:53:11;9.38;;;2.33;;
42098;SDS011;27758;55.900;8.516;2023-09-19T02:55:38;9.23;;;2.42;;
42098;SDS011;27758;55.900;8.516;2023-09-19T02:58:05;9.52;;;2.35;;
42098;SDS011;27758;55.900;8.516;2023-09-19T03:00:33;15.77;;;2.42;;
42098;SDS011;27758;55.900;8.516;2023-09-19T03:03:01;10.53;;;2.40;;
42098;SDS011;27758;55.900;8.516;2023-09-19T03:05:28;10.38;;;2.40;;
42098;SDS011;27758;55.900;8.516;2023-09-19T03:07:56;11.07;;;2.42;;
42098;SDS011;27758;55.900;8.516;2023-09-19T03:10:22;16.17;;;3.55;;
42098;SDS011;27758;55.900;8.516;2023-09-19T03:12:50;20.95;;;3.80;;
42098;SDS011;27758;55.900;8.516;2023-09-19T03:15:15;16.42;;;3.42;;
42098;SDS011;27758;55.900;8.516;2023-09-19T03:17:43;13.60;;;3.47;;
42098;SDS011;27758;55.900;8.516;2023-09-19T03:20:10;16.35;;;3.25;;
42098;SDS011;27758;55.900;8.516;2023-09-19T03:22:38;12.70;;;3.00;;
42098;SDS011;27758;55.900;8.516;2023-09-19T03:25:05;15.77;;;3.38;;
42098;SDS011;27758;55.900;8.516;2023-09-19T03:27:36;22.85;;;3.72;;
42098;SDS011;27758;55.900;8.516;2023-09-19T03:30:02;18.05;;;3.63;;
42098;SDS011;27758;55.900;8.516;2023-09-19T03:32:33;16.73;;;3.03;;
42098;SDS011;27758;55.900;8.516;2023-09-19T03:34:59;15.88;;;3.72;;
42098;SDS011;27758;55.900;8.516;2023-09-19T03:37:25;14.85;;;3.35;;
42098;SDS011;27758;55.900;8.516;2023-09-19T03:39:51;20.38;;;3.00;;
42098;SDS011;27758;55.900;8.516;2023-09-19T03:42:17;14.02;;;3.55;;
42098;SDS011;27758;55.900;8.516;2023-09-19T03:44:42;21.77;;;3.85;;
42098;SDS011;27758;55.900;8.516;2023-09-19T03:47:08;18.27;;;2.85;;
42098;SDS011;27758;55.900;8.516;2023-09-19T03:49:34;17.20;;;3.72;;
42098;SDS011;27758;55.900;8.516;2023-09-19T03:51:59;15.95;;;3.17;;
42098;SDS011;27758;55.900;8.516;2023-09-19T03:54:25;14.57;;;2.88;;
42098;SDS011;27758;55.900;8.516;2023-09-19T03:56:51;15.20;;;3.58;;
42098;SDS011;27758;55.900;8.516;2023-09-19T03:59:16;12.68;;;2.42;;
42098;SDS011;27758;55.900;8.516;2023-09-19T04:01:43;18.02;;;3.13;;
42098;SDS011;27758;55.900;8.516;2023-09-19T04:04:09;14.13;;;3.30;;
42098;SDS011;27758;55.900;8.516;2023-09-19T04:06:34;18.98;;;3.47;;
42098;SDS011;27758;55.900;8.516;2023-09-19T04:09:04;13.13;;;2.72;;
42098;SDS011;27758;55.900;8.516;2023-09-19T04:11:32;18.77;;;3.08;;
42098;SDS011;27758;55.900;8.516;2023-09-19T04:13:58;11.50;;;2.90;;
42098;SDS011;27758;55.900;8.516;2023-09-19T04:16:24;14.10;;;2.65;;
42098;SDS011;27758;55.900;8.516;2023-09-19T04:18:50;10.25;;;3.00;;
42098;SDS011;27758;55.900;8.516;2023-09-19T04:21:16;13.10;;;3.28;;
42098;SDS011;27758;55.900;8.516;2023-09-19T04:23:42;12.77;;;3.20;;
42098;SDS011;27758;55.900;8.516;2023-09-19T04:26:08;9.32;;;2.58;;
42098;SDS011;27758;55.900;8.516;2023-09-19T04:28:33;8.13;;;2.30;;
42098;SDS011;27758;55.900;8.516;2023-09-19T04:31:00;7.65;;;2.35;;
42098;SDS011;27758;55.900;8.516;2023-09-19T04:33:26;7.55;;;2.15;;
42098;SDS011;27758;55.900;8.516;2023-09-19T04:35:54;10.75;;;2.70;;
42098;SDS011;27758;55.900;8.516;2023-09-19T04:38:21;4.82;;;2.03;;
42098;SDS011;27758;55.900;8.516;2023-09-19T04:40:47;14.30;;;3.60;;
42098;SDS011;27758;55.900;8.516;2023-09-19T04:43:13;10.95;;;2.67;;
42098;SDS011;27758;55.900;8.516;2023-09-19T04:45:39;16.98;;;3.15;;
42098;SDS011;27758;55.900;8.516;2023-09-19T04:48:05;17.77;;;3.38;;
42098;SDS011;27758;55.900;8.516;2023-09-19T04:50:34;15.27;;;2.90;;
42098;SDS011;27758;55.900;8.516;2023-09-19T04:53:00;15.20;;;3.35;;
42098;SDS011;27758;55.900;8.516;2023-09-19T04:55:26;17.52;;;3.65;;
42098;SDS011;27758;55.900;8.516;2023-09-19T04:57:52;19.90;;;3.15;;
42098;SDS011;27758;55.900;8.516;2023-09-19T05:00:22;14.50;;;3.75;;
42098;SDS011;27758;55.900;8.516;2023-09-19T05:02:52;23.08;;;3.65;;
42098;SDS011;27758;55.900;8.516;2023-09-19T05:05:21;18.60;;;2.85;;
42098;SDS011;27758;55.900;8.516;2023-09-19T05:07:48;10.07;;;2.90;;
42098;SDS011;27758;55.900;8.516;2023-09-19T05:10:14;12.70;;;2.72;;
42098;SDS011;27758;55.900;8.516;2023-09-19T05:12:41;12.05;;;2.38;;
42098;SDS011;27758;55.900;8.516;2023-09-19T05:15:08;9.10;;;1.80;;
42098;SDS011;27758;55.900;8.516;2023-09-19T05:17:34;7.07;;;1.65;;
42098;SDS011;27758;55.900;8.516;2023-09-19T05:20:00;9.35;;;1.77;;
42098;SDS011;27758;55.900;8.516;2023-09-19T05:22:40;6.85;;;1.65;;
42098;SDS011;27758;55.900;8.516;2023-09-19T05:25:08;10.32;;;1.90;;
42098;SDS011;27758;55.900;8.516;2023-09-19T05:27:38;8.93;;;1.88;;
42098;SDS011;27758;55.900;8.516;2023-09-19T05:30:04;11.93;;;2.03;;
42098;SDS011;27758;55.900;8.516;2023-09-19T05:32:30;14.55;;;2.63;;
42098;SDS011;27758;55.900;8.516;2023-09-19T05:34:55;8.90;;;2.28;;
42098;SDS011;27758;55.900;8.516;2023-09-19T05:37:21;10.52;;;2.60;;
42098;SDS011;27758;55.900;8.516;2023-09-19T05:39:48;19.77;;;4.07;;
42098;SDS011;27758;55.900;8.516;2023-09-19T05:42:14;16.25;;;2.83;;
42098;SDS011;27758;55.900;8.516;2023-09-19T05:44:40;18.50;;;3.55;;
42098;SDS011;27758;55.900;8.516;2023-09-19T05:47:05;13.65;;;2.47;;
42098;SDS011;27758;55.900;8.516;2023-09-19T05:49:34;14.32;;;3.38;;
42098;SDS011;27758;55.900;8.516;2023-09-19T05:52:04;20.13;;;3.33;;
42098;SDS011;27758;55.900;8.516;2023-09-19T05:54:30;19.98;;;4.32;;
42098;SDS011;27758;55.900;8.516;2023-09-19T05:56:56;17.67;;;3.08;;
42098;SDS011;27758;55.900;8.516;2023-09-19T05:59:22;13.93;;;2.65;;
42098;SDS011;27758;55.900;8.516;2023-09-19T06:01:49;20.73;;;3.35;;
42098;SDS011;27758;55.900;8.516;2023-09-19T06:04:14;8.93;;;2.10;;
42098;SDS011;27758;55.900;8.516;2023-09-19T06:06:40;14.57;;;2.65;;
42098;SDS011;27758;55.900;8.516;2023-09-19T06:09:06;19.30;;;2.95;;
42098;SDS011;27758;55.900;8.516;2023-09-19T06:11:35;12.63;;;2.47;;
42098;SDS011;27758;55.900;8.516;2023-09-19T06:14:01;14.55;;;2.85;;
42098;SDS011;27758;55.900;8.516;2023-09-19T06:16:30;10.23;;;2.40;;
42098;SDS011;27758;55.900;8.516;2023-09-19T06:18:58;14.27;;;2.38;;
42098;SDS011;27758;55.900;8.516;2023-09-19T06:21:25;10.40;;;1.92;;
42098;SDS011;27758;55.900;8.516;2023-09-19T06:23:52;16.00;;;2.58;;
42098;SDS011;27758;55.900;8.516;2023-09-19T06:26:23;5.65;;;1.50;;
42098;SDS011;27758;55.900;8.516;2023-09-19T06:28:48;6.55;;;1.63;;
42098;SDS011;27758;55.900;8.516;2023-09-19T06:31:14;8.63;;;1.95;;
42098;SDS011;27758;55.900;8.516;2023-09-19T06:33:40;8.82;;;1.80;;
42098;SDS011;27758;55.900;8.516;2023-09-19T06:36:06;8.23;;;1.92;;
42098;SDS011;27758;55.900;8.516;2023-09-19T06:38:32;14.90;;;2.45;;
42098;SDS011;27758;55.900;8.516;2023-09-19T06:41:01;11.18;;;1.83;;
42098;SDS011;27758;55.900;8.516;2023-09-19T06:43:30;6.18;;;1.50;;
42098;SDS011;27758;55.900;8.516;2023-09-19T06:45:56;8.05;;;1.88;;
42098;SDS011;27758;55.900;8.516;2023-09-19T06:48:22;10.40;;;2.75;;
42098;SDS011;27758;55.900;8.516;2023-09-19T06:50:50;11.23;;;1.60;;
42098;SDS011;27758;55.900;8.516;2023-09-19T06:53:17;7.47;;;1.33;;
42098;SDS011;27758;55.900;8.516;2023-09-19T06:55:43;5.03;;;1.35;;
42098;SDS011;27758;55.900;8.516;2023-09-19T06:58:10;10.35;;;1.95;;
42098;SDS011;27758;55.900;8.516;2023-09-19T07:00:36;9.80;;;1.88;;
42098;SDS011;27758;55.900;8.516;2023-09-19T07:03:06;8.75;;;2.22;;
42098;SDS011;27758;55.900;8.516;2023-09-19T07:05:43;11.55;;;2.05;;
42098;SDS011;27758;55.900;8.516;2023-09-19T07:08:09;10.07;;;2.05;;
42098;SDS011;27758;55.900;8.516;2023-09-19T07:10:37;9.25;;;2.00;;
42098;SDS011;27758;55.900;8.516;2023-09-19T07:13:06;8.07;;;1.40;;
42098;SDS011;27758;55.900;8.516;2023-09-19T07:15:36;9.75;;;1.45;;
42098;SDS011;27758;55.900;8.516;2023-09-19T07:18:05;8.55;;;1.98;;
42098;SDS011;27758;55.900;8.516;2023-09-19T07:20:31;14.80;;;2.67;;
42098;SDS011;27758;55.900;8.516;2023-09-19T07:22:59;12.50;;;2.78;;
42098;SDS011;27758;55.900;8.516;2023-09-19T07:25:26;15.93;;;2.45;;
42098;SDS011;27758;55.900;8.516;2023-09-19T07:27:52;13.98;;;2.63;;
42098;SDS011;27758;55.900;8.516;2023-09-19T07:30:19;12.98;;;1.83;;
42098;SDS011;27758;55.900;8.516;2023-09-19T07:32:45;8.98;;;2.13;;
42098;SDS011;27758;55.900;8.516;2023-09-19T07:35:11;16.98;;;2.55;;
42098;SDS011;27758;55.900;8.516;2023-09-19T07:37:37;13.20;;;2.65;;
42098;SDS011;27758;55.900;8.516;2023-09-19T07:40:03;8.52;;;1.42;;
42098;SDS011;27758;55.900;8.516;2023-09-19T07:42:35;10.40;;;2.30;;
42098;SDS011;27758;55.900;8.516;2023-09-19T07:45:04;7.82;;;1.80;;
42098;SDS011;27758;55.900;8.516;2023-09-19T07:47:30;8.80;;;2.22;;
42098;SDS011;27758;55.900;8.516;2023-09-19T07:49:57;9.63;;;2.20;;
42098;SDS011;27758;55.900;8.516;2023-09-19T07:52:24;9.80;;;1.83;;
42098;SDS011;27758;55.900;8.516;2023-09-19T07:54:52;11.88;;;2.25;;
42098;SDS011;27758;55.900;8.516;2023-09-19T07:57:19;11.20;;;2.38;;
42098;SDS011;27758;55.900;8.516;2023-09-19T07:59:45;9.13;;;1.85;;
42098;SDS011;27758;55.900;8.516;2023-09-19T08:02:11;9.05;;;2.17;;
42098;SDS011;27758;55.900;8.516;2023-09-19T08:04:44;11.40;;;2.63;;
42098;SDS011;27758;55.900;8.516;2023-09-19T08:07:11;8.68;;;2.50;;
42098;SDS011;27758;55.900;8.516;2023-09-19T08:09:40;7.93;;;1.73;;
42098;SDS011;27758;55.900;8.516;2023-09-19T08:12:07;7.72;;;1.75;;
42098;SDS011;27758;55.900;8.516;2023-09-19T08:14:35;6.70;;;1.73;;
42098;SDS011;27758;55.900;8.516;2023-09-19T08:17:02;5.90;;;2.13;;
42098;SDS011;27758;55.900;8.516;2023-09-19T08:19:30;10.60;;;1.92;;
42098;SDS011;27758;55.900;8.516;2023-09-19T08:22:00;7.90;;;1.95;;
42098;SDS011;27758;55.900;8.516;2023-09-19T08:24:29;6.63;;;1.58;;
42098;SDS011;27758;55.900;8.516;2023-09-19T08:26:55;7.35;;;1.50;;
42098;SDS011;27758;55.900;8.516;2023-09-19T08:29:22;11.10;;;2.85;;
42098;SDS011;27758;55.900;8.516;2023-09-19T08:31:55;10.52;;;2.72;;
42098;SDS011;27758;55.900;8.516;2023-09-19T08:34:22;9.38;;;1.40;;
42098;SDS011;27758;55.900;8.516;2023-09-19T08:36:52;8.95;;;1.90;;
42098;SDS011;27758;55.900;8.516;2023-09-19T08:39:24;7.22;;;1.60;;
42098;SDS011;27758;55.900;8.516;2023-09-19T08:41:59;12.52;;;2.58;;
42098;SDS011;27758;55.900;8.516;2023-09-19T08:44:26;13.45;;;2.45;;
42098;SDS011;27758;55.900;8.516;2023-09-19T08:46:56;7.35;;;1.65;;
42098;SDS011;27758;55.900;8.516;2023-09-19T08:49:33;8.23;;;2.20;;
42098;SDS011;27758;55.900;8.516;2023-09-19T08:52:55;11.88;;;2.10;;
42098;SDS011;27758;55.900;8.516;2023-09-19T08:55:02;12.88;;;2.47;;
42098;SDS011;27758;55.900;8.516;2023-09-19T08:57:35;6.78;;;1.73;;
42098;SDS011;27758;55.900;8.516;2023-09-19T09:02:37;6.82;;;1.60;;
42098;SDS011;27758;55.900;8.516;2023-09-19T09:05:06;8.45;;;1.90;;
42098;SDS011;27758;55.900;8.516;2023-09-19T09:07:42;9.27;;;1.77;;
42098;SDS011;27758;55.900;8.516;2023-09-19T09:10:09;9.88;;;1.98;;
42098;SDS011;27758;55.900;8.516;2023-09-19T09:12:35;13.60;;;2.60;;
42098;SDS011;27758;55.900;8.516;2023-09-19T09:15:06;8.52;;;2.03;;
42098;SDS011;27758;55.900;8.516;2023-09-19T09:17:33;7.88;;;2.03;;
42098;SDS011;27758;55.900;8.516;2023-09-19T09:19:59;8.52;;;2.00;;
42098;SDS011;27758;55.900;8.516;2023-09-19T09:22:25;11.13;;;2.70;;
42098;SDS011;27758;55.900;8.516;2023-09-19T09:24:55;9.52;;;1.90;;
42098;SDS011;27758;55.900;8.516;2023-09-19T09:27:29;6.80;;;1.73;;
42098;SDS011;27758;55.900;8.516;2023-09-19T09:29:56;13.68;;;2.28;;
42098;SDS011;27758;55.900;8.516;2023-09-19T09:32:26;9.85;;;2.15;;
42098;SDS011;27758;55.900;8.516;2023-09-19T09:34:59;8.43;;;1.80;;
42098;SDS011;27758;55.900;8.516;2023-09-19T09:37:26;16.63;;;3.22;;
42098;SDS011;27758;55.900;8.516;2023-09-19T09:40:00;11.68;;;2.05;;
42098;SDS011;27758;55.900;8.516;2023-09-19T09:42:42;8.77;;;2.38;;
42098;SDS011;27758;55.900;8.516;2023-09-19T09:47:45;7.50;;;2.22;;
42098;SDS011;27758;55.900;8.516;2023-09-19T09:50:24;10.90;;;2.25;;
42098;SDS011;27758;55.900;8.516;2023-09-19T09:53:01;10.07;;;2.42;;
42098;SDS011;27758;55.900;8.516;2023-09-19T09:58:33;16.13;;;2.47;;
42098;SDS011;27758;55.900;8.516;2023-09-19T10:01:00;11.18;;;2.55;;
42098;SDS011;27758;55.900;8.516;2023-09-19T10:03:34;13.52;;;2.50;;
42098;SDS011;27758;55.900;8.516;2023-09-19T10:06:04;11.60;;;2.17;;
42098;SDS011;27758;55.900;8.516;2023-09-19T10:11:57;13.00;;;1.95;;
42098;SDS011;27758;55.900;8.516;2023-09-19T10:14:30;9.57;;;2.05;;
42098;SDS011;27758;55.900;8.516;2023-09-19T10:16:59;13.32;;;2.10;;
42098;SDS011;27758;55.900;8.516;2023-09-19T10:19:42;11.38;;;2.17;;
42098;SDS011;27758;55.900;8.516;2023-09-19T10:22:17;9.50;;;1.92;;
42098;SDS011;27758;55.900;8.516;2023-09-19T10:27:14;19.15;;;3.22;;
42098;SDS011;27758;55.900;8.516;2023-09-19T10:29:41;15.85;;;2.92;;
42098;SDS011;27758;55.900;8.516;2023-09-19T10:32:09;16.95;;;3.05;;
42098;SDS011;27758;55.900;8.516;2023-09-19T10:34:43;17.80;;;3.08;;
42098;SDS011;27758;55.900;8.516;2023-09-19T10:37:12;13.77;;;2.63;;
42098;SDS011;27758;55.900;8.516;2023-09-19T10:39:39;8.23;;;2.15;;
42098;SDS011;27758;55.900;8.516;2023-09-19T10:42:05;10.68;;;2.35;;
42098;SDS011;27758;55.900;8.516;2023-09-19T10:44:34;13.70;;;3.17;;
42098;SDS011;27758;55.900;8.516;2023-09-19T10:47:07;9.23;;;1.88;;
42098;SDS011;27758;55.900;8.516;2023-09-19T10:49:33;9.88;;;1.92;;
42098;SDS011;27758;55.900;8.516;2023-09-19T10:51:59;13.45;;;2.85;;
42098;SDS011;27758;55.900;8.516;2023-09-19T10:54:28;8.65;;;2.08;;
42098;SDS011;27758;55.900;8.516;2023-09-19T10:57:02;19.42;;;2.60;;
42098;SDS011;27758;55.900;8.516;2023-09-19T10:59:30;10.00;;;2.55;;
42098;SDS011;27758;55.900;8.516;2023-09-19T11:02:00;17.52;;;2.83;;
42098;SDS011;27758;55.900;8.516;2023-09-19T11:04:42;10.07;;;2.50;;
42098;SDS011;27758;55.900;8.516;2023-09-19T11:07:13;12.48;;;3.03;;
42098;SDS011;27758;55.900;8.516;2023-09-19T11:15:00;13.10;;;2.65;;
42098;SDS011;27758;55.900;8.516;2023-09-19T11:17:36;12.88;;;2.75;;
42098;SDS011;27758;55.900;8.516;2023-09-19T11:30:46;17.40;;;3.33;;
42098;SDS011;27758;55.900;8.516;2023-09-19T11:46:52;22.48;;;4.28;;
42098;SDS011;27758;55.900;8.516;2023-09-19T11:49:27;16.60;;;3.78;;
42098;SDS011;27758;55.900;8.516;2023-09-19T11:51:58;19.63;;;3.83;;
42098;SDS011;27758;55.900;8.516;2023-09-19T11:54:26;20.63;;;4.25;;
42098;SDS011;27758;55.900;8.516;2023-09-19T11:56:56;22.95;;;4.63;;
42098;SDS011;27758;55.900;8.516;2023-09-19T11:59:23;24.60;;;4.75;;
42098;SDS011;27758;55.900;8.516;2023-09-19T12:01:57;18.95;;;4.20;;
42098;SDS011;27758;55.900;8.516;2023-09-19T12:04:38;18.83;;;4.68;;
42098;SDS011;27758;55.900;8.516;2023-09-19T12:07:09;17.30;;;4.10;;
42098;SDS011;27758;55.900;8.516;2023-09-19T12:09:43;16.83;;;3.53;;
42098;SDS011;27758;55.900;8.516;2023-09-19T12:12:23;15.00;;;3.67;;
42098;SDS011;27758;55.900;8.516;2023-09-19T12:14:52;15.07;;;3.50;;
42098;SDS011;27758;55.900;8.516;2023-09-19T12:17:19;18.35;;;3.95;;
42098;SDS011;27758;55.900;8.516;2023-09-19T12:19:55;15.27;;;3.42;;
42098;SDS011;27758;55.900;8.516;2023-09-19T12:22:22;15.07;;;4.13;;
42098;SDS011;27758;55.900;8.516;2023-09-19T12:24:47;13.95;;;3.42;;
42098;SDS011;27758;55.900;8.516;2023-09-19T12:27:15;17.05;;;4.25;;
42098;SDS011;27758;55.900;8.516;2023-09-19T12:29:48;19.15;;;4.22;;
42098;SDS011;27758;55.900;8.516;2023-09-19T12:32:14;16.52;;;3.83;;
42098;SDS011;27758;55.900;8.516;2023-09-19T12:34:42;22.58;;;4.63;;
42098;SDS011;27758;55.900;8.516;2023-09-19T12:37:16;13.85;;;3.83;;
42098;SDS011;27758;55.900;8.516;2023-09-19T12:39:52;20.38;;;4.28;;
42098;SDS011;27758;55.900;8.516;2023-09-19T12:42:25;18.10;;;4.70;;
42098;SDS011;27758;55.900;8.516;2023-09-19T12:44:57;19.23;;;5.40;;
42098;SDS011;27758;55.900;8.516;2023-09-19T12:47:26;17.23;;;4.20;;
42098;SDS011;27758;55.900;8.516;2023-09-19T12:52:39;20.92;;;5.32;;
42098;SDS011;27758;55.900;8.516;2023-09-19T12:55:06;30.13;;;5.82;;
42098;SDS011;27758;55.900;8.516;2023-09-19T12:57:33;22.80;;;4.88;;
42098;SDS011;27758;55.900;8.516;2023-09-19T13:00:03;20.48;;;5.05;;
42098;SDS011;27758;55.900;8.516;2023-09-19T13:02:32;25.10;;;6.30;;
42098;SDS011;27758;55.900;8.516;2023-09-19T13:04:58;29.60;;;5.13;;
42098;SDS011;27758;55.900;8.516;2023-09-19T13:07:42;24.80;;;5.30;;
42098;SDS011;27758;55.900;8.516;2023-09-19T13:10:12;26.05;;;5.88;;
42098;SDS011;27758;55.900;8.516;2023-09-19T13:12:42;25.88;;;5.07;;
42098;SDS011;27758;55.900;8.516;2023-09-19T13:15:12;25.85;;;5.18;;
42098;SDS011;27758;55.900;8.516;2023-09-19T13:17:45;18.60;;;4.53;;
42098;SDS011;27758;55.900;8.516;2023-09-19T13:20:26;18.83;;;4.18;;
42098;SDS011;27758;55.900;8.516;2023-09-19T13:22:57;16.15;;;4.00;;
42098;SDS011;27758;55.900;8.516;2023-09-19T13:25:33;22.13;;;5.63;;
42098;SDS011;27758;55.900;8.516;2023-09-19T13:28:00;33.33;;;5.25;;
42098;SDS011;27758;55.900;8.516;2023-09-19T13:30:29;21.70;;;4.88;;
42098;SDS011;27758;55.900;8.516;2023-09-19T13:33:06;22.98;;;4.70;;
42098;SDS011;27758;55.900;8.516;2023-09-19T13:35:34;23.00;;;4.30;;
42098;SDS011;27758;55.900;8.516;2023-09-19T13:38:02;18.92;;;3.97;;
42098;SDS011;27758;55.900;8.516;2023-09-19T13:40:28;19.77;;;4.15;;
42098;SDS011;27758;55.900;8.516;2023-09-19T13:42:56;21.80;;;4.30;;
42098;SDS011;27758;55.900;8.516;2023-09-19T13:45:22;15.48;;;3.80;;
42098;SDS011;27758;55.900;8.516;2023-09-19T13:47:49;18.13;;;4.05;;
42098;SDS011;27758;55.900;8.516;2023-09-19T13:50:15;19.88;;;4.40;;
42098;SDS011;27758;55.900;8.516;2023-09-19T13:52:42;21.55;;;4.53;;
42098;SDS011;27758;55.900;8.516;2023-09-19T13:55:08;19.48;;;3.78;;
42098;SDS011;27758;55.900;8.516;2023-09-19T13:57:33;23.02;;;4.93;;
42098;SDS011;27758;55.900;8.516;2023-09-19T13:59:59;25.08;;;4.40;;
42098;SDS011;27758;55.900;8.516;2023-09-19T14:02:25;17.05;;;3.33;;
42098;SDS011;27758;55.900;8.516;2023-09-19T14:04:53;23.55;;;4.47;;
42098;SDS011;27758;55.900;8.516;2023-09-19T14:07:20;15.25;;;4.28;;
42098;SDS011;27758;55.900;8.516;2023-09-19T14:09:46;23.50;;;4.63;;
42098;SDS011;27758;55.900;8.516;2023-09-19T14:12:12;23.67;;;4.63;;
42098;SDS011;27758;55.900;8.516;2023-09-19T14:14:39;21.42;;;4.60;;
42098;SDS011;27758;55.900;8.516;2023-09-19T14:17:04;27.70;;;4.65;;
42098;SDS011;27758;55.900;8.516;2023-09-19T14:19:32;26.02;;;4.00;;
42098;SDS011;27758;55.900;8.516;2023-09-19T14:21:58;18.70;;;4.35;;
42098;SDS011;27758;55.900;8.516;2023-09-19T14:24:25;21.60;;;5.07;;
42098;SDS011;27758;55.900;8.516;2023-09-19T14:26:51;26.15;;;4.93;;
42098;SDS011;27758;55.900;8.516;2023-09-19T14:29:16;24.15;;;4.15;;
42098;SDS011;27758;55.900;8.516;2023-09-19T14:31:42;26.02;;;4.88;;
42098;SDS011;27758;55.900;8.516;2023-09-19T14:34:08;16.15;;;4.97;;
42098;SDS011;27758;55.900;8.516;2023-09-19T14:36:37;18.58;;;5.32;;
42098;SDS011;27758;55.900;8.516;2023-09-19T14:39:06;23.88;;;4.43;;
42098;SDS011;27758;55.900;8.516;2023-09-19T14:41:33;15.27;;;3.72;;
42098;SDS011;27758;55.900;8.516;2023-09-19T14:43:59;21.20;;;4.32;;
42098;SDS011;27758;55.900;8.516;2023-09-19T14:46:27;25.17;;;4.05;;
42098;SDS011;27758;55.900;8.516;2023-09-19T14:48:53;15.23;;;3.70;;
42098;SDS011;27758;55.900;8.516;2023-09-19T14:51:24;19.70;;;3.55;;
42098;SDS011;27758;55.900;8.516;2023-09-19T14:53:50;21.52;;;4.25;;
42098;SDS011;27758;55.900;8.516;2023-09-19T14:56:15;13.65;;;3.08;;
42098;SDS011;27758;55.900;8.516;2023-09-19T14:58:43;13.75;;;3.47;;
42098;SDS011;27758;55.900;8.516;2023-09-19T15:01:10;17.15;;;3.13;;
42098;SDS011;27758;55.900;8.516;2023-09-19T15:03:37;15.90;;;2.83;;
42098;SDS011;27758;55.900;8.516;2023-09-19T15:06:08;11.77;;;2.75;;
42098;SDS011;27758;55.900;8.516;2023-09-19T15:08:36;13.77;;;2.70;;
42098;SDS011;27758;55.900;8.516;2023-09-19T15:11:06;13.40;;;2.90;;
42098;SDS011;27758;55.900;8.516;2023-09-19T15:13:35;11.93;;;2.95;;
42098;SDS011;27758;55.900;8.516;2023-09-19T15:16:02;14.57;;;3.40;;
42098;SDS011;27758;55.900;8.516;2023-09-19T15:18:28;15.77;;;3.60;;
42098;SDS011;27758;55.900;8.516;2023-09-19T15:21:02;14.13;;;3.05;;
42098;SDS011;27758;55.900;8.516;2023-09-19T15:23:31;13.65;;;3.28;;
42098;SDS011;27758;55.900;8.516;2023-09-19T15:25:59;16.00;;;3.80;;
42098;SDS011;27758;55.900;8.516;2023-09-19T15:28:26;13.05;;;2.58;;
42098;SDS011;27758;55.900;8.516;2023-09-19T15:30:57;16.33;;;3.67;;
42098;SDS011;27758;55.900;8.516;2023-09-19T15:33:27;21.73;;;4.20;;
42098;SDS011;27758;55.900;8.516;2023-09-19T15:36:14;11.15;;;3.00;;
42098;SDS011;27758;55.900;8.516;2023-09-19T15:41:19;14.23;;;2.70;;
42098;SDS011;27758;55.900;8.516;2023-09-19T15:43:45;14.77;;;3.35;;
42098;SDS011;27758;55.900;8.516;2023-09-19T15:46:11;13.05;;;3.67;;
42098;SDS011;27758;55.900;8.516;2023-09-19T15:48:38;24.10;;;4.35;;
42098;SDS011;27758;55.900;8.516;2023-09-19T15:51:04;19.63;;;4.38;;
42098;SDS011;27758;55.900;8.516;2023-09-19T15:53:48;23.80;;;5.20;;